sensor_id;sensor_type;location;lat;lon;timestamp;P1;durP1;ratioP1;P2;durP2;ratioP2
79204;SDS011;68632;47.512;19.104;2024-01-11T00:00:05;85.20;;;46.90;;
79204;SDS011;68632;47.512;19.104;2024-01-11T00:01:08;80.30;;;46.45;;
79204;SDS011;68632;47.512;19.104;2024-01-11T00:02:12;86.65;;;48.58;;
79204;SDS011;68632;47.512;19.104;2024-01-11T00:03:14;89.28;;;48.25;;
79204;SDS011;68632;47.512;19.104;2024-01-11T00:04:17;89.40;;;47.25;;
79204;SDS011;68632;47.512;19.104;2024-01-11T00:05:19;82.05;;;46.38;;
79204;SDS011;68632;47.512;19.104;2024-01-11T00:06:21;80.75;;;46.25;;
79204;SDS011;68632;47.512;19.104;2024-01-11T00:07:23;94.75;;;50.25;;
79204;SDS011;68632;47.512;19.104;2024-01-11T00:08:25;94.07;;;49.38;;
79204;SDS011;68632;47.512;19.104;2024-01-11T00:09:28;92.75;;;49.83;;
79204;SDS011;68632;47.512;19.104;2024-01-11T00:10:30;99.13;;;50.88;;
79204;SDS011;68632;47.512;19.104;2024-01-11T00:11:32;94.43;;;51.15;;
79204;SDS011;68632;47.512;19.104;2024-01-11T00:12:34;86.85;;;49.03;;
79204;SDS011;68632;47.512;19.104;2024-01-11T00:13:37;93.90;;;52.60;;
79204;SDS011;68632;47.512;19.104;2024-01-11T00:14:39;93.50;;;49.83;;
79204;SDS011;68632;47.512;19.104;2024-01-11T00:15:42;95.78;;;50.67;;
79204;SDS011;68632;47.512;19.104;2024-01-11T00:16:44;91.88;;;48.20;;
79204;SDS011;68632;47.512;19.104;2024-01-11T00:17:46;83.25;;;51.90;;
79204;SDS011;68632;47.512;19.104;2024-01-11T00:18:48;73.13;;;42.38;;
79204;SDS011;68632;47.512;19.104;2024-01-11T00:19:51;86.15;;;48.60;;
79204;SDS011;68632;47.512;19.104;2024-01-11T00:20:54;85.65;;;45.45;;
79204;SDS011;68632;47.512;19.104;2024-01-11T00:21:56;84.22;;;45.10;;
79204;SDS011;68632;47.512;19.104;2024-01-11T00:22:58;91.28;;;48.63;;
79204;SDS011;68632;47.512;19.104;2024-01-11T00:24:00;82.47;;;46.40;;
79204;SDS011;68632;47.512;19.104;2024-01-11T00:25:03;88.68;;;48.38;;
79204;SDS011;68632;47.512;19.104;2024-01-11T00:26:06;90.60;;;48.53;;
79204;SDS011;68632;47.512;19.104;2024-01-11T00:27:08;87.32;;;49.35;;
79204;SDS011;68632;47.512;19.104;2024-01-11T00:28:10;89.78;;;48.72;;
79204;SDS011;68632;47.512;19.104;2024-01-11T00:29:12;87.18;;;50.00;;
79204;SDS011;68632;47.512;19.104;2024-01-11T00:30:14;89.97;;;46.60;;
79204;SDS011;68632;47.512;19.104;2024-01-11T00:31:17;89.50;;;48.55;;
79204;SDS011;68632;47.512;19.104;2024-01-11T00:32:19;85.97;;;45.97;;
79204;SDS011;68632;47.512;19.104;2024-01-11T00:33:23;88.18;;;46.17;;
79204;SDS011;68632;47.512;19.104;2024-01-11T00:34:25;87.07;;;45.85;;
79204;SDS011;68632;47.512;19.104;2024-01-11T00:35:28;77.75;;;43.70;;
79204;SDS011;68632;47.512;19.104;2024-01-11T00:36:30;88.18;;;47.45;;
79204;SDS011;68632;47.512;19.104;2024-01-11T00:37:32;84.45;;;46.38;;
79204;SDS011;68632;47.512;19.104;2024-01-11T00:38:34;86.35;;;47.05;;
79204;SDS011;68632;47.512;19.104;2024-01-11T00:39:37;89.28;;;47.22;;
79204;SDS011;68632;47.512;19.104;2024-01-11T00:40:39;92.45;;;50.75;;
79204;SDS011;68632;47.512;19.104;2024-01-11T00:41:41;93.32;;;50.22;;
79204;SDS011;68632;47.512;19.104;2024-01-11T00:42:43;82.43;;;45.95;;
79204;SDS011;68632;47.512;19.104;2024-01-11T00:43:45;89.68;;;47.70;;
79204;SDS011;68632;47.512;19.104;2024-01-11T00:44:48;86.70;;;46.05;;
79204;SDS011;68632;47.512;19.104;2024-01-11T00:45:51;87.60;;;49.05;;
79204;SDS011;68632;47.512;19.104;2024-01-11T00:46:53;87.95;;;48.05;;
79204;SDS011;68632;47.512;19.104;2024-01-11T00:47:56;91.53;;;47.40;;
79204;SDS011;68632;47.512;19.104;2024-01-11T00:48:59;85.68;;;45.53;;
79204;SDS011;68632;47.512;19.104;2024-01-11T00:50:01;86.55;;;44.22;;
79204;SDS011;68632;47.512;19.104;2024-01-11T00:51:04;81.80;;;47.03;;
79204;SDS011;68632;47.512;19.104;2024-01-11T00:52:07;94.30;;;46.95;;
79204;SDS011;68632;47.512;19.104;2024-01-11T00:53:09;87.13;;;46.53;;
79204;SDS011;68632;47.512;19.104;2024-01-11T00:54:13;90.80;;;48.05;;
79204;SDS011;68632;47.512;19.104;2024-01-11T00:55:15;92.13;;;49.03;;
79204;SDS011;68632;47.512;19.104;2024-01-11T00:56:18;95.03;;;48.22;;
79204;SDS011;68632;47.512;19.104;2024-01-11T00:57:21;83.53;;;46.28;;
79204;SDS011;68632;47.512;19.104;2024-01-11T00:58:26;90.07;;;47.08;;
79204;SDS011;68632;47.512;19.104;2024-01-11T00:59:31;88.43;;;46.03;;
79204;SDS011;68632;47.512;19.104;2024-01-11T01:00:34;88.90;;;48.70;;
79204;SDS011;68632;47.512;19.104;2024-01-11T01:01:36;89.47;;;48.35;;
79204;SDS011;68632;47.512;19.104;2024-01-11T01:02:38;92.05;;;46.97;;
79204;SDS011;68632;47.512;19.104;2024-01-11T01:03:40;88.28;;;47.50;;
79204;SDS011;68632;47.512;19.104;2024-01-11T01:04:43;89.70;;;45.58;;
79204;SDS011;68632;47.512;19.104;2024-01-11T01:05:45;84.90;;;46.28;;
79204;SDS011;68632;47.512;19.104;2024-01-11T01:06:48;84.65;;;48.13;;
79204;SDS011;68632;47.512;19.104;2024-01-11T01:07:50;82.97;;;44.17;;
79204;SDS011;68632;47.512;19.104;2024-01-11T01:08:53;83.25;;;44.88;;
79204;SDS011;68632;47.512;19.104;2024-01-11T01:09:56;91.07;;;49.03;;
79204;SDS011;68632;47.512;19.104;2024-01-11T01:10:58;93.20;;;52.25;;
79204;SDS011;68632;47.512;19.104;2024-01-11T01:12:00;83.82;;;46.28;;
79204;SDS011;68632;47.512;19.104;2024-01-11T01:13:02;86.28;;;48.65;;
79204;SDS011;68632;47.512;19.104;2024-01-11T01:14:05;88.78;;;50.22;;
79204;SDS011;68632;47.512;19.104;2024-01-11T01:15:07;100.75;;;49.22;;
79204;SDS011;68632;47.512;19.104;2024-01-11T01:16:09;94.35;;;49.92;;
79204;SDS011;68632;47.512;19.104;2024-01-11T01:17:11;95.78;;;49.38;;
79204;SDS011;68632;47.512;19.104;2024-01-11T01:18:17;94.57;;;50.15;;
79204;SDS011;68632;47.512;19.104;2024-01-11T01:19:20;98.53;;;49.55;;
79204;SDS011;68632;47.512;19.104;2024-01-11T01:20:22;87.18;;;47.08;;
79204;SDS011;68632;47.512;19.104;2024-01-11T01:21:24;90.20;;;48.55;;
79204;SDS011;68632;47.512;19.104;2024-01-11T01:22:26;82.03;;;46.03;;
79204;SDS011;68632;47.512;19.104;2024-01-11T01:23:29;86.28;;;46.47;;
79204;SDS011;68632;47.512;19.104;2024-01-11T01:24:31;84.13;;;46.28;;
79204;SDS011;68632;47.512;19.104;2024-01-11T01:25:34;94.00;;;49.53;;
79204;SDS011;68632;47.512;19.104;2024-01-11T01:26:36;91.95;;;51.55;;
79204;SDS011;68632;47.512;19.104;2024-01-11T01:27:38;100.93;;;51.15;;
79204;SDS011;68632;47.512;19.104;2024-01-11T01:28:40;93.90;;;49.38;;
79204;SDS011;68632;47.512;19.104;2024-01-11T01:29:43;88.03;;;49.03;;
79204;SDS011;68632;47.512;19.104;2024-01-11T01:30:45;95.05;;;48.85;;
79204;SDS011;68632;47.512;19.104;2024-01-11T01:31:47;94.93;;;51.42;;
79204;SDS011;68632;47.512;19.104;2024-01-11T01:32:49;96.70;;;48.60;;
79204;SDS011;68632;47.512;19.104;2024-01-11T01:33:52;92.10;;;49.20;;
79204;SDS011;68632;47.512;19.104;2024-01-11T01:34:54;100.45;;;51.45;;
79204;SDS011;68632;47.512;19.104;2024-01-11T01:35:56;92.13;;;50.30;;
79204;SDS011;68632;47.512;19.104;2024-01-11T01:36:59;90.40;;;48.88;;
79204;SDS011;68632;47.512;19.104;2024-01-11T01:38:01;98.20;;;49.42;;
79204;SDS011;68632;47.512;19.104;2024-01-11T01:39:04;88.18;;;49.42;;
79204;SDS011;68632;47.512;19.104;2024-01-11T01:40:06;89.25;;;47.97;;
79204;SDS011;68632;47.512;19.104;2024-01-11T01:41:09;98.93;;;52.05;;
79204;SDS011;68632;47.512;19.104;2024-01-11T01:42:11;91.88;;;50.65;;
79204;SDS011;68632;47.512;19.104;2024-01-11T01:43:13;96.60;;;51.10;;
79204;SDS011;68632;47.512;19.104;2024-01-11T01:44:16;93.72;;;50.15;;
79204;SDS011;68632;47.512;19.104;2024-01-11T01:45:18;105.47;;;53.15;;
79204;SDS011;68632;47.512;19.104;2024-01-11T01:46:22;95.38;;;49.35;;
79204;SDS011;68632;47.512;19.104;2024-01-11T01:47:25;89.97;;;51.45;;
79204;SDS011;68632;47.512;19.104;2024-01-11T01:48:29;106.32;;;52.05;;
79204;SDS011;68632;47.512;19.104;2024-01-11T01:49:31;102.93;;;53.05;;
79204;SDS011;68632;47.512;19.104;2024-01-11T01:50:34;99.75;;;52.45;;
79204;SDS011;68632;47.512;19.104;2024-01-11T01:51:36;102.57;;;52.55;;
79204;SDS011;68632;47.512;19.104;2024-01-11T01:52:39;98.03;;;54.80;;
79204;SDS011;68632;47.512;19.104;2024-01-11T01:53:42;94.55;;;51.50;;
79204;SDS011;68632;47.512;19.104;2024-01-11T01:54:44;100.10;;;52.55;;
79204;SDS011;68632;47.512;19.104;2024-01-11T01:55:46;95.75;;;54.53;;
79204;SDS011;68632;47.512;19.104;2024-01-11T01:56:50;99.28;;;52.35;;
79204;SDS011;68632;47.512;19.104;2024-01-11T01:57:52;98.00;;;51.80;;
79204;SDS011;68632;47.512;19.104;2024-01-11T01:58:55;105.38;;;52.92;;
79204;SDS011;68632;47.512;19.104;2024-01-11T01:59:58;96.75;;;50.22;;
79204;SDS011;68632;47.512;19.104;2024-01-11T02:01:00;94.13;;;52.88;;
79204;SDS011;68632;47.512;19.104;2024-01-11T02:02:04;96.75;;;54.55;;
79204;SDS011;68632;47.512;19.104;2024-01-11T02:03:07;100.88;;;51.95;;
79204;SDS011;68632;47.512;19.104;2024-01-11T02:04:10;109.18;;;56.05;;
79204;SDS011;68632;47.512;19.104;2024-01-11T02:05:12;97.07;;;53.40;;
79204;SDS011;68632;47.512;19.104;2024-01-11T02:06:15;107.97;;;56.75;;
79204;SDS011;68632;47.512;19.104;2024-01-11T02:07:17;108.22;;;60.47;;
79204;SDS011;68632;47.512;19.104;2024-01-11T02:08:21;107.72;;;57.45;;
79204;SDS011;68632;47.512;19.104;2024-01-11T02:09:24;100.75;;;56.20;;
79204;SDS011;68632;47.512;19.104;2024-01-11T02:10:26;99.05;;;54.58;;
79204;SDS011;68632;47.512;19.104;2024-01-11T02:11:29;99.72;;;56.80;;
79204;SDS011;68632;47.512;19.104;2024-01-11T02:12:32;96.93;;;52.78;;
79204;SDS011;68632;47.512;19.104;2024-01-11T02:13:34;103.78;;;54.08;;
79204;SDS011;68632;47.512;19.104;2024-01-11T02:14:37;107.78;;;56.30;;
79204;SDS011;68632;47.512;19.104;2024-01-11T02:15:39;103.63;;;54.70;;
79204;SDS011;68632;47.512;19.104;2024-01-11T02:16:42;96.40;;;52.22;;
79204;SDS011;68632;47.512;19.104;2024-01-11T02:17:44;94.15;;;51.35;;
79204;SDS011;68632;47.512;19.104;2024-01-11T02:18:46;93.10;;;49.63;;
79204;SDS011;68632;47.512;19.104;2024-01-11T02:19:49;100.30;;;58.88;;
79204;SDS011;68632;47.512;19.104;2024-01-11T02:20:51;94.35;;;49.08;;
79204;SDS011;68632;47.512;19.104;2024-01-11T02:21:53;99.18;;;51.35;;
79204;SDS011;68632;47.512;19.104;2024-01-11T02:22:58;103.05;;;52.45;;
79204;SDS011;68632;47.512;19.104;2024-01-11T02:24:08;91.68;;;49.10;;
79204;SDS011;68632;47.512;19.104;2024-01-11T02:25:10;97.13;;;54.13;;
79204;SDS011;68632;47.512;19.104;2024-01-11T02:26:15;95.15;;;52.10;;
79204;SDS011;68632;47.512;19.104;2024-01-11T02:27:18;98.35;;;54.17;;
79204;SDS011;68632;47.512;19.104;2024-01-11T02:28:20;99.03;;;53.22;;
79204;SDS011;68632;47.512;19.104;2024-01-11T02:29:22;105.40;;;52.92;;
79204;SDS011;68632;47.512;19.104;2024-01-11T02:30:24;103.78;;;54.97;;
79204;SDS011;68632;47.512;19.104;2024-01-11T02:31:27;93.28;;;52.58;;
79204;SDS011;68632;47.512;19.104;2024-01-11T02:32:30;99.38;;;52.03;;
79204;SDS011;68632;47.512;19.104;2024-01-11T02:33:32;97.75;;;52.42;;
79204;SDS011;68632;47.512;19.104;2024-01-11T02:34:34;100.07;;;52.97;;
79204;SDS011;68632;47.512;19.104;2024-01-11T02:35:37;104.20;;;54.22;;
79204;SDS011;68632;47.512;19.104;2024-01-11T02:36:45;97.25;;;51.47;;
79204;SDS011;68632;47.512;19.104;2024-01-11T02:37:48;102.53;;;54.08;;
79204;SDS011;68632;47.512;19.104;2024-01-11T02:38:50;100.05;;;51.38;;
79204;SDS011;68632;47.512;19.104;2024-01-11T02:39:53;93.45;;;50.15;;
79204;SDS011;68632;47.512;19.104;2024-01-11T02:40:55;92.68;;;49.88;;
79204;SDS011;68632;47.512;19.104;2024-01-11T02:41:58;95.22;;;49.58;;
79204;SDS011;68632;47.512;19.104;2024-01-11T02:43:10;102.72;;;51.25;;
79204;SDS011;68632;47.512;19.104;2024-01-11T02:44:13;85.07;;;44.25;;
79204;SDS011;68632;47.512;19.104;2024-01-11T02:45:15;97.05;;;50.78;;
79204;SDS011;68632;47.512;19.104;2024-01-11T02:46:17;94.65;;;48.80;;
79204;SDS011;68632;47.512;19.104;2024-01-11T02:47:19;94.20;;;49.60;;
79204;SDS011;68632;47.512;19.104;2024-01-11T02:48:22;95.65;;;52.30;;
79204;SDS011;68632;47.512;19.104;2024-01-11T02:49:24;107.25;;;56.47;;
79204;SDS011;68632;47.512;19.104;2024-01-11T02:50:26;107.75;;;51.05;;
79204;SDS011;68632;47.512;19.104;2024-01-11T02:51:29;103.07;;;57.53;;
79204;SDS011;68632;47.512;19.104;2024-01-11T02:52:31;89.60;;;48.35;;
79204;SDS011;68632;47.512;19.104;2024-01-11T02:53:33;111.72;;;56.50;;
79204;SDS011;68632;47.512;19.104;2024-01-11T02:54:36;98.93;;;51.22;;
79204;SDS011;68632;47.512;19.104;2024-01-11T02:55:38;103.07;;;52.15;;
79204;SDS011;68632;47.512;19.104;2024-01-11T02:56:40;93.65;;;49.80;;
79204;SDS011;68632;47.512;19.104;2024-01-11T02:57:44;104.68;;;55.50;;
79204;SDS011;68632;47.512;19.104;2024-01-11T02:58:46;105.72;;;54.58;;
79204;SDS011;68632;47.512;19.104;2024-01-11T02:59:48;106.07;;;55.83;;
79204;SDS011;68632;47.512;19.104;2024-01-11T03:00:51;105.07;;;55.00;;
79204;SDS011;68632;47.512;19.104;2024-01-11T03:01:53;108.57;;;55.60;;
79204;SDS011;68632;47.512;19.104;2024-01-11T03:02:55;106.20;;;58.17;;
79204;SDS011;68632;47.512;19.104;2024-01-11T03:03:57;101.13;;;55.72;;
79204;SDS011;68632;47.512;19.104;2024-01-11T03:05:00;102.38;;;57.63;;
79204;SDS011;68632;47.512;19.104;2024-01-11T03:06:02;103.05;;;56.25;;
79204;SDS011;68632;47.512;19.104;2024-01-11T03:07:05;108.55;;;54.08;;
79204;SDS011;68632;47.512;19.104;2024-01-11T03:08:07;105.63;;;56.55;;
79204;SDS011;68632;47.512;19.104;2024-01-11T03:09:09;101.18;;;53.65;;
79204;SDS011;68632;47.512;19.104;2024-01-11T03:10:11;109.90;;;56.33;;
79204;SDS011;68632;47.512;19.104;2024-01-11T03:11:14;97.90;;;53.58;;
79204;SDS011;68632;47.512;19.104;2024-01-11T03:12:16;101.03;;;55.78;;
79204;SDS011;68632;47.512;19.104;2024-01-11T03:13:18;100.25;;;54.88;;
79204;SDS011;68632;47.512;19.104;2024-01-11T03:14:20;107.13;;;52.67;;
79204;SDS011;68632;47.512;19.104;2024-01-11T03:15:23;104.18;;;55.28;;
79204;SDS011;68632;47.512;19.104;2024-01-11T03:16:25;92.38;;;50.97;;
79204;SDS011;68632;47.512;19.104;2024-01-11T03:17:27;99.47;;;51.92;;
79204;SDS011;68632;47.512;19.104;2024-01-11T03:18:29;105.28;;;56.55;;
79204;SDS011;68632;47.512;19.104;2024-01-11T03:19:33;112.40;;;55.33;;
79204;SDS011;68632;47.512;19.104;2024-01-11T03:20:35;99.40;;;53.58;;
79204;SDS011;68632;47.512;19.104;2024-01-11T03:21:42;106.75;;;56.10;;
79204;SDS011;68632;47.512;19.104;2024-01-11T03:22:45;108.63;;;55.60;;
79204;SDS011;68632;47.512;19.104;2024-01-11T03:23:48;96.95;;;51.28;;
79204;SDS011;68632;47.512;19.104;2024-01-11T03:24:50;98.95;;;50.92;;
79204;SDS011;68632;47.512;19.104;2024-01-11T03:25:53;101.05;;;53.13;;
79204;SDS011;68632;47.512;19.104;2024-01-11T03:26:55;107.95;;;56.40;;
79204;SDS011;68632;47.512;19.104;2024-01-11T03:27:57;107.05;;;55.03;;
79204;SDS011;68632;47.512;19.104;2024-01-11T03:29:00;94.60;;;50.88;;
79204;SDS011;68632;47.512;19.104;2024-01-11T03:30:02;110.63;;;57.33;;
79204;SDS011;68632;47.512;19.104;2024-01-11T03:31:07;106.10;;;54.38;;
79204;SDS011;68632;47.512;19.104;2024-01-11T03:32:12;100.45;;;56.05;;
79204;SDS011;68632;47.512;19.104;2024-01-11T03:33:16;103.15;;;54.65;;
79204;SDS011;68632;47.512;19.104;2024-01-11T03:34:18;100.07;;;53.95;;
79204;SDS011;68632;47.512;19.104;2024-01-11T03:35:21;99.63;;;52.90;;
79204;SDS011;68632;47.512;19.104;2024-01-11T03:36:24;102.10;;;48.63;;
79204;SDS011;68632;47.512;19.104;2024-01-11T03:37:26;105.18;;;54.85;;
79204;SDS011;68632;47.512;19.104;2024-01-11T03:38:28;104.13;;;56.80;;
79204;SDS011;68632;47.512;19.104;2024-01-11T03:39:31;96.72;;;55.05;;
79204;SDS011;68632;47.512;19.104;2024-01-11T03:40:34;103.20;;;54.33;;
79204;SDS011;68632;47.512;19.104;2024-01-11T03:41:36;113.85;;;56.97;;
79204;SDS011;68632;47.512;19.104;2024-01-11T03:42:38;104.78;;;55.75;;
79204;SDS011;68632;47.512;19.104;2024-01-11T03:43:40;105.95;;;58.17;;
79204;SDS011;68632;47.512;19.104;2024-01-11T03:44:43;111.70;;;57.85;;
79204;SDS011;68632;47.512;19.104;2024-01-11T03:45:45;112.80;;;56.30;;
79204;SDS011;68632;47.512;19.104;2024-01-11T03:46:47;105.43;;;56.78;;
79204;SDS011;68632;47.512;19.104;2024-01-11T03:47:49;111.85;;;57.17;;
79204;SDS011;68632;47.512;19.104;2024-01-11T03:48:52;97.47;;;55.60;;
79204;SDS011;68632;47.512;19.104;2024-01-11T03:49:54;104.38;;;57.28;;
79204;SDS011;68632;47.512;19.104;2024-01-11T03:50:56;100.78;;;54.58;;
79204;SDS011;68632;47.512;19.104;2024-01-11T03:51:59;103.13;;;55.95;;
79204;SDS011;68632;47.512;19.104;2024-01-11T03:53:01;107.90;;;57.33;;
79204;SDS011;68632;47.512;19.104;2024-01-11T03:54:04;103.47;;;56.88;;
79204;SDS011;68632;47.512;19.104;2024-01-11T03:55:06;101.43;;;57.10;;
79204;SDS011;68632;47.512;19.104;2024-01-11T03:56:09;113.00;;;53.90;;
79204;SDS011;68632;47.512;19.104;2024-01-11T03:57:12;98.70;;;54.72;;
79204;SDS011;68632;47.512;19.104;2024-01-11T03:58:14;104.75;;;57.60;;
79204;SDS011;68632;47.512;19.104;2024-01-11T03:59:16;115.65;;;52.42;;
79204;SDS011;68632;47.512;19.104;2024-01-11T04:00:18;99.28;;;55.72;;
79204;SDS011;68632;47.512;19.104;2024-01-11T04:01:21;107.38;;;55.55;;
79204;SDS011;68632;47.512;19.104;2024-01-11T04:02:23;108.22;;;56.42;;
79204;SDS011;68632;47.512;19.104;2024-01-11T04:03:26;97.85;;;52.90;;
79204;SDS011;68632;47.512;19.104;2024-01-11T04:04:28;91.63;;;49.58;;
79204;SDS011;68632;47.512;19.104;2024-01-11T04:05:30;103.13;;;54.83;;
79204;SDS011;68632;47.512;19.104;2024-01-11T04:06:32;106.07;;;55.17;;
79204;SDS011;68632;47.512;19.104;2024-01-11T04:07:35;99.03;;;51.15;;
79204;SDS011;68632;47.512;19.104;2024-01-11T04:08:37;95.18;;;54.50;;
79204;SDS011;68632;47.512;19.104;2024-01-11T04:09:39;99.00;;;49.38;;
79204;SDS011;68632;47.512;19.104;2024-01-11T04:10:42;90.25;;;48.08;;
79204;SDS011;68632;47.512;19.104;2024-01-11T04:11:44;95.97;;;52.22;;
79204;SDS011;68632;47.512;19.104;2024-01-11T04:12:46;93.18;;;47.33;;
79204;SDS011;68632;47.512;19.104;2024-01-11T04:13:48;96.28;;;53.75;;
79204;SDS011;68632;47.512;19.104;2024-01-11T04:14:50;100.47;;;52.63;;
79204;SDS011;68632;47.512;19.104;2024-01-11T04:15:53;113.35;;;54.28;;
79204;SDS011;68632;47.512;19.104;2024-01-11T04:16:55;100.72;;;54.45;;
79204;SDS011;68632;47.512;19.104;2024-01-11T04:17:57;100.72;;;53.65;;
79204;SDS011;68632;47.512;19.104;2024-01-11T04:19:00;103.72;;;55.63;;
79204;SDS011;68632;47.512;19.104;2024-01-11T04:20:02;98.50;;;54.20;;
79204;SDS011;68632;47.512;19.104;2024-01-11T04:21:04;97.50;;;52.85;;
79204;SDS011;68632;47.512;19.104;2024-01-11T04:22:06;96.18;;;54.45;;
79204;SDS011;68632;47.512;19.104;2024-01-11T04:23:09;94.95;;;51.75;;
79204;SDS011;68632;47.512;19.104;2024-01-11T04:24:11;95.43;;;49.40;;
79204;SDS011;68632;47.512;19.104;2024-01-11T04:25:13;86.43;;;45.40;;
79204;SDS011;68632;47.512;19.104;2024-01-11T04:26:15;98.63;;;53.20;;
79204;SDS011;68632;47.512;19.104;2024-01-11T04:27:18;94.28;;;46.95;;
79204;SDS011;68632;47.512;19.104;2024-01-11T04:28:20;99.35;;;50.22;;
79204;SDS011;68632;47.512;19.104;2024-01-11T04:29:22;86.65;;;45.50;;
79204;SDS011;68632;47.512;19.104;2024-01-11T04:30:25;105.60;;;54.38;;
79204;SDS011;68632;47.512;19.104;2024-01-11T04:31:27;96.90;;;52.50;;
79204;SDS011;68632;47.512;19.104;2024-01-11T04:32:29;92.88;;;51.75;;
79204;SDS011;68632;47.512;19.104;2024-01-11T04:33:32;96.43;;;54.00;;
79204;SDS011;68632;47.512;19.104;2024-01-11T04:34:34;97.38;;;51.78;;
79204;SDS011;68632;47.512;19.104;2024-01-11T04:35:36;96.25;;;50.35;;
79204;SDS011;68632;47.512;19.104;2024-01-11T04:36:39;98.88;;;50.97;;
79204;SDS011;68632;47.512;19.104;2024-01-11T04:37:41;96.97;;;51.03;;
79204;SDS011;68632;47.512;19.104;2024-01-11T04:38:43;95.05;;;50.88;;
79204;SDS011;68632;47.512;19.104;2024-01-11T04:39:49;91.45;;;48.78;;
79204;SDS011;68632;47.512;19.104;2024-01-11T04:40:51;100.47;;;52.60;;
79204;SDS011;68632;47.512;19.104;2024-01-11T04:41:53;98.82;;;52.65;;
79204;SDS011;68632;47.512;19.104;2024-01-11T04:42:55;103.05;;;56.70;;
79204;SDS011;68632;47.512;19.104;2024-01-11T04:43:57;87.15;;;46.40;;
79204;SDS011;68632;47.512;19.104;2024-01-11T04:45:00;98.38;;;54.30;;
79204;SDS011;68632;47.512;19.104;2024-01-11T04:46:02;97.57;;;52.20;;
79204;SDS011;68632;47.512;19.104;2024-01-11T04:47:04;99.30;;;49.78;;
79204;SDS011;68632;47.512;19.104;2024-01-11T04:48:07;89.47;;;52.47;;
79204;SDS011;68632;47.512;19.104;2024-01-11T04:49:09;102.40;;;51.35;;
79204;SDS011;68632;47.512;19.104;2024-01-11T04:50:11;100.55;;;52.47;;
79204;SDS011;68632;47.512;19.104;2024-01-11T04:51:14;100.75;;;55.00;;
79204;SDS011;68632;47.512;19.104;2024-01-11T04:52:17;89.35;;;47.65;;
79204;SDS011;68632;47.512;19.104;2024-01-11T04:53:19;89.40;;;49.25;;
79204;SDS011;68632;47.512;19.104;2024-01-11T04:54:21;96.88;;;50.05;;
79204;SDS011;68632;47.512;19.104;2024-01-11T04:55:24;97.53;;;51.28;;
79204;SDS011;68632;47.512;19.104;2024-01-11T04:56:26;97.47;;;52.00;;
79204;SDS011;68632;47.512;19.104;2024-01-11T04:57:28;95.63;;;49.85;;
79204;SDS011;68632;47.512;19.104;2024-01-11T04:58:30;91.78;;;50.08;;
79204;SDS011;68632;47.512;19.104;2024-01-11T04:59:32;103.32;;;56.72;;
79204;SDS011;68632;47.512;19.104;2024-01-11T05:00:35;88.50;;;51.58;;
79204;SDS011;68632;47.512;19.104;2024-01-11T05:01:37;92.07;;;47.35;;
79204;SDS011;68632;47.512;19.104;2024-01-11T05:02:39;88.07;;;47.00;;
79204;SDS011;68632;47.512;19.104;2024-01-11T05:03:42;98.10;;;49.05;;
79204;SDS011;68632;47.512;19.104;2024-01-11T05:04:45;80.25;;;46.90;;
79204;SDS011;68632;47.512;19.104;2024-01-11T05:05:47;101.55;;;52.05;;
79204;SDS011;68632;47.512;19.104;2024-01-11T05:06:50;84.85;;;45.80;;
79204;SDS011;68632;47.512;19.104;2024-01-11T05:07:53;86.10;;;45.72;;
79204;SDS011;68632;47.512;19.104;2024-01-11T05:08:55;80.82;;;43.10;;
79204;SDS011;68632;47.512;19.104;2024-01-11T05:09:58;79.50;;;41.08;;
79204;SDS011;68632;47.512;19.104;2024-01-11T05:11:00;80.18;;;41.40;;
79204;SDS011;68632;47.512;19.104;2024-01-11T05:12:02;74.57;;;37.70;;
79204;SDS011;68632;47.512;19.104;2024-01-11T05:13:05;89.35;;;46.92;;
79204;SDS011;68632;47.512;19.104;2024-01-11T05:14:07;88.30;;;47.20;;
79204;SDS011;68632;47.512;19.104;2024-01-11T05:15:09;94.03;;;46.53;;
79204;SDS011;68632;47.512;19.104;2024-01-11T05:16:22;89.88;;;49.67;;
79204;SDS011;68632;47.512;19.104;2024-01-11T05:17:26;90.80;;;47.58;;
79204;SDS011;68632;47.512;19.104;2024-01-11T05:18:28;91.45;;;49.03;;
79204;SDS011;68632;47.512;19.104;2024-01-11T05:19:35;89.53;;;48.78;;
79204;SDS011;68632;47.512;19.104;2024-01-11T05:20:38;88.60;;;48.28;;
79204;SDS011;68632;47.512;19.104;2024-01-11T05:21:40;90.72;;;46.97;;
79204;SDS011;68632;47.512;19.104;2024-01-11T05:22:43;88.82;;;47.25;;
79204;SDS011;68632;47.512;19.104;2024-01-11T05:23:45;87.30;;;46.88;;
79204;SDS011;68632;47.512;19.104;2024-01-11T05:24:47;87.43;;;47.30;;
79204;SDS011;68632;47.512;19.104;2024-01-11T05:25:49;93.30;;;48.20;;
79204;SDS011;68632;47.512;19.104;2024-01-11T05:26:51;83.50;;;47.10;;
79204;SDS011;68632;47.512;19.104;2024-01-11T05:27:54;92.32;;;49.00;;
79204;SDS011;68632;47.512;19.104;2024-01-11T05:28:56;93.55;;;49.50;;
79204;SDS011;68632;47.512;19.104;2024-01-11T05:29:58;90.63;;;47.63;;
79204;SDS011;68632;47.512;19.104;2024-01-11T05:31:01;91.43;;;47.20;;
79204;SDS011;68632;47.512;19.104;2024-01-11T05:32:03;85.53;;;46.10;;
79204;SDS011;68632;47.512;19.104;2024-01-11T05:33:05;95.20;;;52.15;;
79204;SDS011;68632;47.512;19.104;2024-01-11T05:34:08;90.03;;;47.97;;
79204;SDS011;68632;47.512;19.104;2024-01-11T05:35:14;89.68;;;48.90;;
79204;SDS011;68632;47.512;19.104;2024-01-11T05:36:16;91.13;;;48.28;;
79204;SDS011;68632;47.512;19.104;2024-01-11T05:37:18;90.25;;;47.88;;
79204;SDS011;68632;47.512;19.104;2024-01-11T05:38:22;96.22;;;51.33;;
79204;SDS011;68632;47.512;19.104;2024-01-11T05:39:24;86.53;;;49.10;;
79204;SDS011;68632;47.512;19.104;2024-01-11T05:40:27;84.60;;;49.45;;
79204;SDS011;68632;47.512;19.104;2024-01-11T05:41:29;91.88;;;47.72;;
79204;SDS011;68632;47.512;19.104;2024-01-11T05:42:31;90.15;;;46.33;;
79204;SDS011;68632;47.512;19.104;2024-01-11T05:43:33;86.07;;;49.90;;
79204;SDS011;68632;47.512;19.104;2024-01-11T05:44:35;89.47;;;48.03;;
79204;SDS011;68632;47.512;19.104;2024-01-11T05:45:37;90.30;;;48.53;;
79204;SDS011;68632;47.512;19.104;2024-01-11T05:46:49;87.95;;;48.30;;
79204;SDS011;68632;47.512;19.104;2024-01-11T05:47:51;96.78;;;46.70;;
79204;SDS011;68632;47.512;19.104;2024-01-11T05:48:53;88.53;;;46.70;;
79204;SDS011;68632;47.512;19.104;2024-01-11T05:49:55;86.65;;;45.58;;
79204;SDS011;68632;47.512;19.104;2024-01-11T05:50:58;89.25;;;48.47;;
79204;SDS011;68632;47.512;19.104;2024-01-11T05:52:00;90.00;;;47.97;;
79204;SDS011;68632;47.512;19.104;2024-01-11T05:53:02;83.70;;;46.53;;
79204;SDS011;68632;47.512;19.104;2024-01-11T05:54:05;88.22;;;46.33;;
79204;SDS011;68632;47.512;19.104;2024-01-11T05:55:07;94.60;;;48.78;;
79204;SDS011;68632;47.512;19.104;2024-01-11T05:56:09;90.05;;;47.50;;
79204;SDS011;68632;47.512;19.104;2024-01-11T05:57:12;93.72;;;51.50;;
79204;SDS011;68632;47.512;19.104;2024-01-11T05:58:15;91.13;;;53.13;;
79204;SDS011;68632;47.512;19.104;2024-01-11T05:59:17;87.38;;;45.50;;